hero-logo

Top 15 Knowers of NKE Nike Inc -Cl B - 2017-07-21

Rank Fund Result (K)
1 Hoplite Capital Management L P $7,744
2 Blue Ridge Capital L L C $1,707
3 Waters Parkerson Co Llc $1,705
4 Fiera Capital Corp $1,383
5 Shellback Capital Lp $1,347
6 Quest Investment Management Inc Or $1,199
7 Capital Guardian Trust Co $1,182
8 Riverpark Capital Management Llc $1,126
9 Stifel Financial Corp $1,087
10 Wafra Investment Advisory Group Inc Ny $954
11 Green Valley Investors Llc $935
12 Capital International Ltd Ca $774
13 Interval Partners Lp $567
14 Samlyn Capital Llc $561
15 Northwestern Mutual Investment Management Company Llc $560
Price Chart and News From Google Finance for NKE Nike Inc -Cl B
Owner Date Shares Change Price Change Result (K)
Advantage Investment Management Llc 2017-03-31 -108 $4.90 $0
Afam Capital Inc 2017-03-31 13 $4.90 $0
Ahl Partners Llp 2017-03-31 34,955 $4.90 $171
Allsquare Wealth Management Llc 2017-03-31 -386 $4.90 $-1
Alpine Partners Vi Llc 2017-03-31 -3,560 $4.90 $-17
Amalgamated Bank 2017-03-31 -43,203 $4.90 $-211
American Trust Investment Advisors Llc 2017-03-31 -32,312 $4.90 $-158
Amf Pensionsforsakring Ab 2017-03-31 -131,879 $4.90 $-646
Ancora Advisors Llc 2017-03-31 9,700 $4.90 $47
Aperio Group Llc 2017-03-31 53,672 $4.90 $262
Archford Capital Strategies Llc 2017-03-31 1,253 $4.90 $6
Argi Investment Services Llc 2017-03-31 13 $4.90 $0
Arrow Financial Corp 2017-03-31 -150 $4.90 $0
Arrowmark Colorado Holdings Llc 2017-03-31 -20,400 $4.90 $-99
Assetmark Inc 2017-03-31 -2,079 $4.90 $-10
Atlanta Capital Management Co L L C 2017-03-31 -83,206 $4.90 $-407
Aua Capital Management Llc 2017-03-31 0 $4.90 $0
Aureus Asset Management Llc 2017-03-31 -100 $4.90 $0
Auxier Asset Management 2017-03-31 0 $4.90 $0
Avalon Advisors Llc 2017-03-31 1,385 $4.90 $6
Bahl Gaynor Inc 2017-03-31 -12,914 $4.90 $-63
Balentine Llc 2017-03-31 703 $4.90 $3
Barr E S Co 2017-03-31 -4,850 $4.90 $-23
Beacon Financial Group 2017-06-30 0 $3.27 $0
Bedell Frazier Investment Counseling Llc 2017-03-31 2,551 $4.90 $12
Bienville Capital Management Llc 2017-03-31 0 $4.90 $0
Blair William Co Il 2017-03-31 -21,811 $4.90 $-106
Blue Edge Capital Llc 2017-03-31 -177 $4.90 $0
Bluefin Trading Llc 2017-03-31 -9,291 $4.90 $-45
Blue Ridge Capital L L C 2017-03-31 348,500 $4.90 $1,707
Bokf Na 2017-03-31 8,792 $4.90 $43
Boston Private Wealth Llc 2017-03-31 -12,899 $4.90 $-63
Bragg Financial Advisors Inc 2017-03-31 -470 $4.90 $-2
Bridgeway Capital Management Inc 2017-03-31 -5,000 $4.90 $-24
Brighton Jones Llc 2017-03-31 16,001 $4.90 $78
Brinker Capital Inc 2017-03-31 28,321 $4.90 $138
Brown Brothers Harriman Co 2017-03-31 1,284 $4.90 $6
B S Pension Fund Trustee Ltd Acting For The British Steel P 2017-03-31 -1,239 $4.90 $-6
California State Teachers Retirement System 2017-03-31 -120,900 $4.90 $-592
Camg Solamere Management Llc 2017-03-31 -260 $4.90 $-1
Canandaigua National Bank Trust Co 2017-03-31 -225 $4.90 $-1
Capital Guardian Trust Co 2017-03-31 241,317 $4.90 $1,182
Capital International Inc Ca 2017-03-31 23,740 $4.90 $116
Capital International Ltd Ca 2017-03-31 158,100 $4.90 $774
Capital International Sarl 2017-03-31 36,800 $4.90 $180
Capstone Investment Advisors Llc 2017-03-31 -8,616 $4.90 $-42
Caxton Associates Lp 2017-03-31 10,000 $4.90 $49
Cetera Advisor Networks Llc 2017-03-31 3,871 $4.90 $18
Cetera Advisors Llc 2017-03-31 7,793 $4.90 $38
Cetera Investment Advisers 2017-03-31 3,007 $4.90 $14
Chartwell Investment Partners Llc 2017-03-31 0 $4.90 $0
Chilton Investment Co Llc 2017-03-31 -6,286 $4.90 $-30
Clear Perspective Advisors Llc 2017-03-31 -27 $4.90 $0
Cmh Wealth Management Llc 2017-03-31 -440 $4.90 $-2
Colony Group Llc 2017-03-31 3,668 $4.90 $17
Compagnie Lombard Odier Scma 2017-03-31 78,657 $4.90 $385
Compton Capital Management Inc Ri 2017-03-31 400 $4.90 $1
Confluence Investment Management Llc 2017-03-31 21,106 $4.90 $103
Congress Asset Management Co Ma 2017-03-31 101 $4.90 $0
Consulta Ltd 2017-03-31 0 $4.90 $0
Cornerstone Capital Management Holdings Llc 2017-03-31 -1,089 $4.90 $-5
Covington Capital Management 2017-03-31 -3,139 $4.90 $-15
Crawford Investment Counsel Inc 2017-03-31 -312 $4.90 $-1
D A Davidson Co 2017-03-31 64 $4.90 $0
Davidson Investment Advisors 2017-03-31 -843 $4.90 $-4
Davy Asset Management Ltd 2017-03-31 1,861 $4.90 $9
Denver Investment Advisors Llc 2017-03-31 1,000 $4.90 $4
Dorazio Associates Inc 2017-03-31 0 $4.90 $0
Earnest Partners Llc 2017-03-31 -657 $4.90 $-3
Edgestream Partners L P 2017-03-31 15,161 $4.90 $74
Edmond De Rothschild Holding S A 2017-03-31 10,465 $4.90 $51
Ellington Management Group Llc 2017-03-31 -20,300 $4.90 $-99
Ems Capital Lp 2017-03-31 -480,000 $4.90 $-2,352
Envestnet Asset Management Inc 2017-03-31 50,291 $4.90 $246
Estabrook Capital Management 2017-03-31 52,235 $4.90 $255
Eulav Asset Management 2017-03-31 -10,000 $4.90 $-49
Farmers National Bank 2017-03-31 -1,247 $4.90 $-6
Fdx Advisors Inc 2017-03-31 -15,817 $4.90 $-77
Fic Capital Inc 2017-03-31 3,670 $4.90 $17
Fieldpoint Private Advisors Inc 2017-03-31 -63,755 $4.90 $-312
Fiera Capital Corp 2017-03-31 282,273 $4.90 $1,383
Firefly Value Partners Lp 2017-03-31 -7,638 $4.90 $-37
First Foundation Advisors 2017-03-31 9,220 $4.90 $45
First Heartland Consultants Inc 2017-03-31 54 $4.90 $0
First Long Island Investors Llc 2017-03-31 0 $4.90 $0
First Republic Investment Management Inc 2017-03-31 57,507 $4.90 $281
Flagship Harbor Advisors Llc 2017-03-31 4,370 $4.90 $21
Focused Wealth Management Inc 2017-03-31 -351 $4.90 $-1
Friess Associates Llc 2017-03-31 84,100 $4.90 $412
Frontier Investment Mgmt Co 2017-03-31 180 $4.90 $0
Garde Capital Inc 2017-03-31 300 $4.90 $1
Generation Investment Management Llp 2017-03-31 -11,923 $4.90 $-58
Genesee Valley Trust Co 2017-03-31 98 $4.90 $0
Glassman Wealth Services 2017-03-31 170 $4.90 $0
Glen Harbor Capital Management Llc 2017-03-31 96,254 $4.90 $471
Glg Partners Lp 2017-03-31 -413,094 $4.90 $-2,024
Gotham Asset Management Llc 2017-03-31 -23,848 $4.90 $-116
Green Square Capital Llc 2017-03-31 4,080 $4.90 $19
Green Valley Investors Llc 2017-03-31 190,949 $4.90 $935
Group One Trading L P 2017-03-31 519 $4.90 $2
Gruss Co Inc 2017-03-31 -10,000 $4.90 $-49
Gsa Capital Partners Llp 2017-03-31 27,576 $4.90 $135
Guardian Capital Advisors Lp 2017-03-31 -706 $4.90 $-3
Guardian Capital Lp 2017-03-31 14,247 $4.90 $69
Guggenheim Capital Llc 2017-03-31 -43,803 $4.90 $-214
Guinness Asset Management Ltd 2017-03-31 0 $4.90 $0
Guinness Atkinson Asset Management Inc 2017-03-31 0 $4.90 $0
Halsey Associates Inc Ct 2017-03-31 575 $4.90 $2
Hamel Associates Inc 2017-03-31 0 $4.90 $0
Hanson Doremus Investment Management 2017-03-31 0 $4.90 $0
Hbk Sorce Advisory Llc 2017-03-31 842 $4.90 $4
Hcr Wealth Advisors 2017-03-31 191 $4.90 $0
Hendley Co Inc 2017-03-31 -250 $4.90 $-1
Heritage Way Advisors Llc 2017-03-31 1,125 $4.90 $5
Hhr Asset Management Llc 2017-03-31 -131,900 $4.90 $-646
Highbridge Capital Management Llc 2017-03-31 -4,819 $4.90 $-23
Highlander Capital Management Llc 2017-03-31 9,400 $4.90 $46
Holland Capital Management Llc 2017-03-31 -84,028 $4.90 $-411
Hoplite Capital Management L P 2017-03-31 1,580,417 $4.90 $7,744
Horizon Kinetics Llc 2017-03-31 -1,043 $4.90 $-5
Ibex Wealth Advisors 2017-03-31 -216 $4.90 $-1
Ifp Advisors Inc 2017-03-31 -10,297 $4.90 $-50
Iht Wealth Management Llc 2017-03-31 229 $4.90 $1
Intellectus Partners Llc 2017-03-31 155 $4.90 $0
Interval Partners Lp 2017-03-31 115,817 $4.90 $567
Ipg Investment Advisors Llc 2017-03-31 -25,365 $4.90 $-124
Ironsides Asset Advisors Llc 2017-03-31 -4,260 $4.90 $-20
Israel Discount Bank Of New York 2017-03-31 3,418 $4.90 $16
Itau Unibanco Holding S A 2017-03-31 2,022 $4.90 $9
Jabre Capital Partners S A 2017-03-31 -60,000 $4.90 $-294
Jane Street Group Llc 2017-03-31 7,038 $4.90 $34
Jarislowsky Fraser Ltd 2017-03-31 -17,281 $4.90 $-84
Johnson Investment Counsel Inc 2017-03-31 2,822 $4.90 $13
Keel Point Llc 2017-03-31 51 $4.90 $0
Kentucky Retirement Systems 2017-03-31 -11,995 $4.90 $-58
Kentucky Retirement Systems Insurance Trust Fund 2017-03-31 -7,426 $4.90 $-36
Kernodle Katon Asset Management Group Llc 2017-03-31 0 $4.90 $0
Kimelman Baird Llc 2017-03-31 -1,255 $4.90 $-6
Kingfisher Capital Llc 2017-03-31 -781 $4.90 $-3
Kovitz Investment Group Partners Llc 2017-03-31 -3,822 $4.90 $-18
Krilogy Financial Llc 2017-03-31 0 $4.90 $0
Ladenburg Thalmann Financial Services Inc 2017-03-31 29,136 $4.90 $142
Laurel Wealth Advisors Inc 2017-03-31 3,256 $4.90 $15
Lcnb Corp 2017-03-31 -725 $4.90 $-3
Lebenthal Asset Management Llc 2017-03-31 20,158 $4.90 $98
Lee Financial Corp 2017-03-31 -13 $4.90 $0
Lejeune Puetz Investment Counsel Llc 2017-03-31 925 $4.90 $4
Lenox Wealth Management Inc 2017-03-31 6,511 $4.90 $31
Level Four Advisory Services Llc 2017-03-31 -3,516 $4.90 $-17
Logan Capital Management Inc 2017-03-31 -6,562 $4.90 $-32
London Co Of Virginia 2017-03-31 -28,821 $4.90 $-141
Lowe Brockenbrough Co Inc 2017-03-31 -610 $4.90 $-2
Madison Investment Holdings Inc 2017-03-31 0 $4.90 $0
Magellan Asset Management Ltd 2017-03-31 0 $4.90 $0
Marathon Trading Investment Management Llc 2017-03-31 7,500 $4.90 $36
Mariner Wealth Advisors Llc 2017-03-31 13,641 $4.90 $66
Mason Street Advisors Llc 2017-03-31 352 $4.90 $1
Meadow Creek Investment Management Llc 2017-03-31 79,268 $4.90 $388
Mogy Joel R Investment Counsel Inc 2017-03-31 -7,175 $4.90 $-35
Moloney Securities Asset Management Llc 2017-03-31 3,179 $4.90 $15
Monroe Bank Trust Mi 2017-03-31 0 $4.90 $0
Montecito Bank Trust 2017-03-31 24 $4.90 $0
Mv Capital Management Inc 2017-03-31 -220 $4.90 $-1
National Asset Management Inc 2017-03-31 -353 $4.90 $-1
Next Century Growth Investors Llc 2017-03-31 -19,713 $4.90 $-96
Northern Oak Wealth Management Inc 2017-03-31 0 $4.90 $0
Northwestern Mutual Investment Management Company Llc 2017-03-31 114,450 $4.90 $560
Northwestern Mutual Wealth Management Co 2017-03-31 -12,758 $4.90 $-62
Notis-Mcconarty Edward 2017-03-31 -100 $4.90 $0
One Capital Management Llc 2017-03-31 0 $4.90 $0
Optimum Investment Advisors 2017-03-31 -750 $4.90 $-3
Pacific Center For Financial Services 2017-03-31 0 $4.90 $0
Paloma Partners Management Co 2017-03-31 2,211 $4.90 $10
Patriot Financial Group Insurance Agency Llc 2017-03-31 0 $4.90 $0
Perigon Wealth Management Llc 2017-03-31 1,443 $4.90 $7
Piedmont Investment Advisors Llc 2017-03-31 2,402 $4.90 $11
Pinkerton Retirement Specialists Llc 2017-03-31 -234 $4.90 $-1
Pittenger Anderson Inc 2017-03-31 516 $4.90 $2
Plancorp Llc 2017-03-31 0 $4.90 $0
Proficio Capital Partners Llc 2017-03-31 474 $4.90 $2
Public Employees Retirement System Of Ohio 2017-03-31 0 $4.90 $0
Quest Investment Management Inc Or 2017-03-31 244,736 $4.90 $1,199
Raymond James Associates 2017-03-31 -80,142 $4.90 $-392
Rb Capital Management Llc 2017-03-31 -884 $4.90 $-4
Rbf Capital Llc 2017-03-31 25,000 $4.90 $122
Redwood Investments Llc 2017-03-31 0 $4.90 $0
Reynders Mcveigh Capital Management Llc 2017-03-31 53,634 $4.90 $262
Richard Bernstein Advisors Llc 2017-03-31 0 $4.90 $0
Riverhead Capital Management Llc 2017-03-31 -2,115 $4.90 $-10
Riverpark Advisors Llc 2017-03-31 13,464 $4.90 $65
Riverpark Capital Management Llc 2017-03-31 229,799 $4.90 $1,126
Rosenblum Silverman Sutton S F Inc Ca 2017-03-31 -8,750 $4.90 $-42
Rothschild Asset Management Inc 2017-03-31 -2,383 $4.90 $-11
Roundview Capital Llc 2017-03-31 785 $4.90 $3
Salem Investment Counselors Inc 2017-03-31 225 $4.90 $1
Samlyn Capital Llc 2017-03-31 114,606 $4.90 $561
Saturna Capital Corp 2017-03-31 350 $4.90 $1
Saybrook Capital Nc 2017-03-31 0 $4.90 $0
Sciencast Management Lp 2017-03-31 20,211 $4.90 $99
Scotia Capital Inc 2017-03-31 27,873 $4.90 $136
Segall Bryant Hamill Llc 2017-03-31 3,936 $4.90 $19
Sequoia Financial Advisors Llc 2017-03-31 -600 $4.90 $-2
Shellback Capital Lp 2017-03-31 275,000 $4.90 $1,347
Signaturefd Llc 2017-03-31 9,302 $4.90 $45
Silvercrest Asset Management Group Llc 2017-03-31 -277 $4.90 $-1
Sns Financial Group Llc 2017-03-31 -36,303 $4.90 $-177
Sowell Financial Services Llc 2017-03-31 788 $4.90 $3
Squarepoint Ops Llc 2017-03-31 10,278 $4.90 $50
Srs Capital Advisors Inc 2017-03-31 731 $4.90 $3
Sterling Capital Management Llc 2017-03-31 9,539 $4.90 $46
Sterling Investment Advisors Ltd 2017-03-31 3,000 $4.90 $14
Sterneck Capital Management Llc 2017-03-31 539 $4.90 $2
Stifel Financial Corp 2017-03-31 222,020 $4.90 $1,087
Stonebridge Capital Advisors Llc 2017-03-31 46,225 $4.90 $226
Strategic Financial Services Inc 2017-03-31 -68 $4.90 $0
Summit Global Investments 2017-03-31 9,120 $4.90 $44
Taurus Asset Management Llc 2017-03-31 560 $4.90 $2
Thomas J Herzfeld Advisors Inc 2017-03-31 2 $4.90 $0
Tiverton Asset Management Llc 2017-03-31 -64,404 $4.90 $-315
Tortoise Investment Management Llc 2017-03-31 82 $4.90 $0
Tributary Capital Management Llc 2017-03-31 -900 $4.90 $-4
Two Sigma Securities Llc 2017-03-31 9,620 $4.90 $47
Tyers Asset Management Llc 2017-03-31 45,296 $4.90 $221
United Capital Financial Advisers Llc 2017-03-31 17,067 $4.90 $83
Vantage Financial Partners Ltd Inc 2017-03-31 3,900 $4.90 $19
Veritable L P 2017-03-31 1,987 $4.90 $9
Verition Fund Management Llc 2017-03-31 10,239 $4.90 $50
Voloridge Investment Management Llc 2017-03-31 -1,321,294 $4.90 $-6,474
Wafra Investment Advisory Group Inc Ny 2017-03-31 194,803 $4.90 $954
Walleye Trading Llc 2017-03-31 -28,951 $4.90 $-141
Waters Parkerson Co Llc 2017-03-31 348,118 $4.90 $1,705
Weatherly Asset Management L P 2017-03-31 5,135 $4.90 $25
Webster Bank N A 2017-03-31 900 $4.90 $4
Westside Investment Management Inc 2017-03-31 471 $4.90 $2
Westwood Holdings Group Inc 2017-03-31 2,310 $4.90 $11
Whalerock Point Partners Llc 2017-03-31 0 $4.90 $0
Wills Financial Group Inc 2017-03-31 743 $4.90 $3
Wimmer Associates 1 Llc 2017-03-31 120 $4.90 $0
Yorkbridge Wealth Partners Llc 2017-03-31 2,135 $4.90 $10
Zevin Asset Management Llc 2017-03-31 0 $4.90 $0